createdAt,value
2019-04-29T00:03:18.480Z,63.42
2019-04-29T00:11:53.584Z,63.39
2019-04-29T00:17:13.284Z,63.66
2019-04-29T00:22:20.460Z,63.66
2019-04-29T00:27:27.442Z,63.71
2019-04-29T00:32:33.348Z,63.96
2019-04-29T00:37:49.684Z,63.90
2019-04-29T00:43:13.249Z,64.31
2019-04-29T00:48:19.269Z,64.31
2019-04-29T00:53:27.241Z,64.45
2019-04-29T00:58:33.293Z,64.60
2019-04-29T01:03:41.213Z,64.52
2019-04-29T01:08:48.482Z,64.67
2019-04-29T01:13:55.451Z,64.86
2019-04-29T01:19:03.981Z,65.17
2019-04-29T01:24:11.492Z,65.39
2019-04-29T01:29:19.582Z,65.69
2019-04-29T01:34:31.437Z,66.61
2019-04-29T01:39:43.814Z,66.61
2019-04-29T01:44:50.560Z,67.31
2019-04-29T01:49:57.494Z,68.26
2019-04-29T01:55:03.282Z,68.26
2019-04-29T02:00:12.576Z,68.66
2019-04-29T02:05:18.526Z,69.56
2019-04-29T02:10:33.265Z,69.80
2019-04-29T02:15:40.447Z,69.80
2019-04-29T02:20:47.561Z,70.22
2019-04-29T02:25:54.437Z,70.80
2019-04-29T02:31:20.254Z,70.80
2019-04-29T02:36:29.706Z,71.38
2019-04-29T02:41:42.750Z,71.67
2019-04-29T02:46:48.495Z,71.80
2019-04-29T02:51:55.441Z,72.05
2019-04-29T02:57:11.256Z,72.24
2019-04-29T03:02:36.257Z,72.48
2019-04-29T03:07:43.766Z,72.95
2019-04-29T03:12:51.068Z,73.16
2019-04-29T03:22:23.225Z,72.67
2019-04-29T03:27:30.407Z,73.26
2019-04-29T03:32:38.605Z,73.45
2019-04-29T03:37:45.585Z,73.79
2019-04-29T03:46:05.669Z,73.53
2019-04-29T03:51:11.497Z,74.03
2019-04-29T03:56:18.549Z,74.03
2019-04-29T04:01:46.241Z,73.98
2019-04-29T04:07:14.922Z,74.21
2019-04-29T04:12:21.687Z,74.21
2019-04-29T04:17:43.264Z,74.15
2019-04-29T04:22:50.452Z,74.18
2019-04-29T04:27:57.480Z,74.40
2019-04-29T04:33:03.504Z,74.51
2019-04-29T04:38:10.472Z,74.81
2019-04-29T04:43:17.583Z,74.89
2019-04-29T04:48:24.438Z,74.89
2019-04-29T04:53:31.453Z,74.89
2019-04-29T04:58:38.442Z,74.81
2019-04-29T05:03:45.447Z,74.90
2019-04-29T05:08:52.439Z,75.05
2019-04-29T05:13:59.524Z,75.16
2019-04-29T05:19:06.599Z,75.34
2019-04-29T05:24:14.432Z,75.33
2019-04-29T05:29:21.560Z,75.33
2019-04-29T05:34:30.247Z,75.13
2019-04-29T05:39:40.238Z,75.13
2019-04-29T05:45:06.672Z,75.34
2019-04-29T05:50:30.495Z,75.46
2019-04-29T05:55:37.575Z,75.46
2019-04-29T06:01:04.255Z,75.54
2019-04-29T06:06:12.386Z,75.54
2019-04-29T06:11:18.332Z,76.04
2019-04-29T06:16:26.654Z,76.04
2019-04-29T06:21:33.568Z,76.63
2019-04-29T06:26:39.293Z,76.63
2019-04-29T06:31:45.278Z,76.80
2019-04-29T06:36:51.261Z,76.99
2019-04-29T06:41:57.275Z,77.11
2019-04-29T06:47:07.087Z,77.13
2019-04-29T06:52:14.318Z,76.98
2019-04-29T06:57:21.425Z,77.51
2019-04-29T07:02:28.440Z,77.51
2019-04-29T07:07:35.423Z,77.54
2019-04-29T07:12:42.915Z,77.54
2019-04-29T07:17:51.565Z,77.70
2019-04-29T07:23:00.776Z,78.16
2019-04-29T07:28:07.460Z,78.16
2019-04-29T07:33:21.729Z,78.31
2019-04-29T07:38:23.687Z,78.40
2019-04-29T07:43:30.605Z,78.40
2019-04-29T07:48:41.874Z,78.36
2019-04-29T07:53:46.442Z,78.36
2019-04-29T07:58:53.561Z,78.34
2019-04-29T08:04:00.562Z,78.34
2019-04-29T08:09:09.828Z,79.16
2019-04-29T08:14:18.448Z,79.16
2019-04-29T08:24:46.002Z,80.69
2019-04-29T08:29:53.642Z,80.69
2019-04-29T08:35:03.245Z,81.02
2019-04-29T08:40:16.265Z,80.63
2019-04-29T08:45:26.415Z,80.63
2019-04-29T08:52:33.252Z,80.58
2019-04-29T08:57:40.417Z,80.44
2019-04-29T09:02:49.242Z,79.88
2019-04-29T09:07:57.371Z,78.63
2019-04-29T09:13:06.557Z,78.12
2019-04-29T09:18:13.490Z,77.37
2019-04-29T09:23:23.876Z,76.78
2019-04-29T09:28:30.856Z,77.22
2019-04-29T09:33:38.029Z,77.22
2019-04-29T09:38:45.411Z,77.06
2019-04-29T09:44:04.045Z,77.53
2019-04-29T09:52:50.587Z,77.87
2019-04-29T09:57:57.434Z,76.36
2019-04-29T10:03:10.395Z,76.36
2019-04-29T10:08:17.514Z,75.55
2019-04-29T10:13:24.459Z,76.01
2019-04-29T10:18:40.593Z,76.24
2019-04-29T10:23:47.586Z,75.70
2019-04-29T10:28:59.263Z,75.71
2019-04-29T10:34:08.017Z,75.71
2019-04-29T10:39:47.577Z,75.82
2019-04-29T10:45:12.447Z,75.68
2019-04-29T10:50:25.411Z,75.68
2019-04-29T10:55:33.672Z,75.94
2019-04-29T11:01:38.260Z,75.15
2019-04-29T11:06:45.539Z,75.15
2019-04-29T11:11:52.528Z,75.05
2019-04-29T11:17:02.606Z,74.90
2019-04-29T11:22:11.552Z,74.57
2019-04-29T11:27:27.259Z,74.57
2019-04-29T11:32:45.437Z,74.75
2019-04-29T11:37:55.465Z,74.88
2019-04-29T11:43:01.576Z,74.95
2019-04-29T11:48:08.721Z,74.80
2019-04-29T11:53:16.231Z,74.80
2019-04-29T11:58:39.266Z,74.06
2019-04-29T12:03:51.458Z,73.97
2019-04-29T12:08:56.713Z,72.88
2019-04-29T12:14:22.275Z,72.46
2019-04-29T12:19:31.620Z,72.15
2019-04-29T12:24:38.459Z,72.82
2019-04-29T12:29:48.931Z,72.82
2019-04-29T12:35:04.477Z,72.15
2019-04-29T12:40:30.247Z,72.09
2019-04-29T12:45:41.504Z,70.43
2019-04-29T12:50:50.988Z,69.74
2019-04-29T12:55:57.058Z,67.30
2019-04-29T13:01:16.247Z,66.83
2019-04-29T13:06:39.129Z,65.46
2019-04-29T13:11:48.322Z,65.46
2019-04-29T13:17:16.552Z,63.88
2019-04-29T13:22:23.588Z,63.15
2019-04-29T13:27:30.442Z,64.54
2019-04-29T13:32:37.482Z,64.54
2019-04-29T13:37:45.537Z,64.02
2019-04-29T13:42:52.438Z,64.00
2019-04-29T13:48:19.226Z,64.47
2019-04-29T13:53:26.448Z,65.07
2019-04-29T13:58:34.488Z,64.25
2019-04-29T14:03:49.520Z,64.25
2019-04-29T14:09:00.092Z,60.78
2019-04-29T14:14:06.581Z,60.78
2019-04-29T14:19:13.439Z,58.96
2019-04-29T14:24:20.549Z,58.96
2019-04-29T14:29:28.179Z,59.88
2019-04-29T14:34:42.699Z,57.29
2019-04-29T14:39:49.639Z,54.20
2019-04-29T14:45:15.272Z,55.20
2019-04-29T14:50:22.460Z,55.20
2019-04-29T14:55:30.796Z,55.30
2019-04-29T15:00:56.139Z,54.67
2019-04-29T15:06:03.443Z,54.66
2019-04-29T15:11:11.618Z,55.26
2019-04-29T15:16:28.267Z,48.63
2019-04-29T15:21:47.480Z,48.63
2019-04-29T15:26:57.575Z,48.36
2019-04-29T15:32:05.050Z,46.56
2019-04-29T15:37:13.396Z,46.56
2019-04-29T15:42:20.457Z,46.90
2019-04-29T15:47:31.181Z,45.19
2019-04-29T15:52:36.421Z,44.45
2019-04-29T16:02:53.427Z,44.17
2019-04-29T16:08:08.254Z,42.69
2019-04-29T16:13:16.074Z,42.71
2019-04-29T16:18:24.322Z,43.16
2019-04-29T16:23:32.711Z,42.46
2019-04-29T16:28:40.426Z,41.28
2019-04-29T16:33:54.743Z,39.56
2019-04-29T16:38:56.437Z,40.09
2019-04-29T16:44:04.016Z,39.14
2019-04-29T16:49:12.259Z,37.37
2019-04-29T16:54:22.159Z,36.94
2019-04-29T16:59:26.735Z,36.37
2019-04-29T17:04:34.390Z,36.57
2019-04-29T17:10:06.794Z,35.38
2019-04-29T17:20:22.725Z,35.28
2019-04-29T17:25:29.581Z,34.78
2019-04-29T17:31:14.927Z,36.09
2019-04-29T17:35:17.652Z,44.17
2019-04-29T17:35:18.771Z,35.25
2019-04-29T17:36:24.020Z,36.09
2019-04-29T17:41:31.427Z,36.22
2019-04-29T17:46:56.261Z,36.75
2019-04-29T17:52:06.767Z,36.61
2019-04-29T17:57:31.529Z,36.98
2019-04-29T18:03:00.678Z,36.66
2019-04-29T18:08:11.544Z,36.87
2019-04-29T18:13:23.732Z,37.54
2019-04-29T18:18:46.261Z,37.72
2019-04-29T18:24:15.421Z,37.19
2019-04-29T18:29:22.579Z,37.26
2019-04-29T18:34:33.597Z,38.85
2019-04-29T18:39:39.435Z,38.85
2019-04-29T18:44:54.942Z,39.47
2019-04-29T18:49:56.525Z,39.81
2019-04-29T18:55:03.546Z,40.82
2019-04-29T19:00:14.513Z,40.82
2019-04-29T19:05:32.371Z,41.12
2019-04-29T19:10:39.456Z,41.08
2019-04-29T19:15:48.495Z,41.60
2019-04-29T19:20:57.018Z,41.81
2019-04-29T19:26:04.414Z,41.92
2019-04-29T19:31:49.932Z,42.47
2019-04-29T19:36:59.418Z,42.79
2019-04-29T19:42:06.460Z,42.97
2019-04-29T19:47:16.548Z,43.29
2019-04-29T19:52:30.507Z,43.65
2019-04-29T19:57:34.058Z,44.14
2019-04-29T20:02:48.664Z,44.14
2019-04-29T20:07:51.484Z,44.48
2019-04-29T20:12:59.599Z,44.62
2019-04-29T20:18:23.741Z,44.90
2019-04-29T20:23:28.809Z,44.99
2019-04-29T20:28:36.011Z,45.19
2019-04-29T20:33:46.864Z,45.47
2019-04-29T20:38:51.457Z,45.80
2019-04-29T20:44:00.942Z,46.41
2019-04-29T20:49:07.662Z,46.92
2019-04-29T20:54:19.667Z,46.92
2019-04-29T20:59:26.929Z,46.88
2019-04-29T21:04:39.239Z,47.28
2019-04-29T21:09:42.445Z,47.59
2019-04-29T21:14:53.073Z,47.93
2019-04-29T21:20:00.428Z,48.37
2019-04-29T21:25:07.677Z,48.74
2019-04-29T21:30:15.479Z,49.73
2019-04-29T21:35:33.189Z,49.73
2019-04-29T21:40:46.133Z,50.26
2019-04-29T21:45:55.520Z,50.62
2019-04-29T21:51:02.420Z,51.63
2019-04-29T21:56:09.718Z,51.63
2019-04-29T22:01:17.082Z,51.80
2019-04-29T22:06:29.052Z,52.25
2019-04-29T22:11:37.773Z,52.62
2019-04-29T22:16:47.496Z,53.00
2019-04-29T22:21:52.700Z,53.60
2019-04-29T22:27:03.780Z,54.00
2019-04-29T22:32:14.434Z,54.49
2019-04-29T22:37:17.592Z,54.99
2019-04-29T22:42:39.429Z,55.45
2019-04-29T22:47:45.309Z,55.69
2019-04-29T22:52:55.371Z,56.85
2019-04-29T22:58:08.155Z,56.85
2019-04-29T23:03:10.418Z,56.96
2019-04-29T23:08:17.451Z,57.52
2019-04-29T23:13:26.802Z,57.60
2019-04-29T23:18:41.609Z,58.00
2019-04-29T23:23:48.276Z,58.26
2019-04-29T23:28:59.457Z,58.68
2019-04-29T23:34:05.774Z,59.13
2019-04-29T23:39:12.782Z,59.26
2019-04-29T23:44:19.592Z,59.55
2019-04-29T23:49:26.442Z,59.91
2019-04-29T23:54:44.282Z,60.05
2019-04-29T23:59:47.320Z,60.18
